Whitmore Lake, MI (48189)

8:30 AM EST on February 14, 2016 (GMT -0500)
Homestead | | Change Station
CLOSE
Current Station
Personal Weather Station
Location: Whitmore Lake, MI
Elevation: 919 ft
Nearby Weather Stations

Elev 919 ft 42.42 °N, 83.79 °W | Updated 10 seconds ago

Mostly Cloudy
Mostly Cloudy
-2.2 °F
Feels Like -2 °F
N
0.0
Wind Variable Wind from North
Gusts 0.0 mph

Today
High -- | Low -- °F
--% Chance of Precip.
Yesterday
High -- | Low -- °F
Precip. -- in
Pressure 30.51 in
Visibility 10.0 miles
Clouds Clear
Windchill -2 °F
Dew Point -19 °F
Humidity 43%
Rainfall 0.00 in
Snow Depth Not available.
7:33 AM 6:05 PM
Waxing Crescent, 41% visible
METAR KARB 141253Z 00000KT 10SM CLR M22/M24 A3044 RMK AO2 SLP331 T12171239
Pressure 30.51 in
Visibility 10.0 miles
Clouds Clear
Windchill -2 °F
Dew Point -19 °F
Humidity 43%
Rainfall 0.00 in
Snow Depth Not available.
7:33 AM 6:05 PM
Waxing Crescent, 41% visible
METAR KARB 141253Z 00000KT 10SM CLR M22/M24 A3044 RMK AO2 SLP331 T12171239

10-Day Weather Forecast

Almanac

Astronomy

Feb. 14, 2016 Rise Set
Actual Time
Civil Twilight
Nautical Twilight
Astronomical Twilight
Moon
Length of Visible Light
Length of Day
Tomorrow will be .
, % of the Moon is Illuminated

Today's Extremes

State Highs State Lows

Community

WunderPhotos

Upload Photos

1,892,785 photos uploaded!

WunderBlog® & News

Nearby

Air Quality

  Air Quality AQ Index Pollutant
Not available.

Snow Depth

Station Depth Elevation

Earthquake Activity

City Distance Mag. Time & Date
Minimum magnitude displayed is 2.5.

Coastal Water Temperatures

Place Temperature

Stations

Nearby Weather Stations

Station Location Temp. Windchill Dew Point Humidity Wind Precip. Elev Updated Type
                   

Watches & Warnings

There are currently no watches in effect.